createdAt,value
2022-09-12T00:00:01.959Z,4.80
2022-09-12T00:01:02.031Z,4.70
2022-09-12T00:02:02.076Z,3.20
2022-09-12T00:03:02.098Z,3.81
2022-09-12T00:04:02.187Z,4.01
2022-09-12T00:05:02.159Z,3.00
2022-09-12T00:06:03.061Z,4.89
2022-09-12T00:07:02.240Z,3.81
2022-09-12T00:08:02.260Z,3.81
2022-09-12T00:09:02.288Z,3.30
2022-09-12T00:10:02.341Z,4.40
2022-09-12T00:11:02.412Z,4.21
2022-09-12T00:12:02.401Z,4.40
2022-09-12T00:13:02.342Z,4.99
2022-09-12T00:14:02.372Z,4.80
2022-09-12T00:15:02.476Z,5.48
2022-09-12T00:16:02.495Z,5.28
2022-09-12T00:17:02.463Z,5.57
2022-09-12T00:18:02.513Z,4.80
2022-09-12T00:19:02.555Z,6.05
2022-09-12T00:20:02.595Z,5.57
2022-09-12T00:21:02.683Z,5.48
2022-09-12T00:22:02.633Z,5.76
2022-09-12T00:23:03.537Z,5.48
2022-09-12T00:24:02.714Z,5.95
2022-09-12T00:25:02.746Z,5.48
2022-09-12T00:26:03.625Z,6.43
2022-09-12T00:27:02.814Z,6.61
2022-09-12T00:28:03.013Z,6.61
2022-09-12T00:29:02.911Z,7.45
2022-09-12T00:30:02.927Z,6.99
2022-09-12T00:31:03.905Z,6.71
2022-09-12T00:32:03.038Z,7.08
2022-09-12T00:33:03.076Z,5.86
2022-09-12T00:34:03.116Z,6.43
2022-09-12T00:35:03.407Z,6.33
2022-09-12T00:36:03.217Z,7.08
2022-09-12T00:37:03.244Z,7.36
2022-09-12T00:38:03.269Z,7.36
2022-09-12T00:39:03.343Z,7.08
2022-09-12T00:40:03.385Z,6.99
2022-09-12T00:41:03.288Z,7.63
2022-09-12T00:42:03.321Z,6.89
2022-09-12T00:43:03.348Z,7.54
2022-09-12T00:44:03.381Z,7.63
2022-09-12T00:45:03.441Z,8.00
2022-09-12T00:46:03.524Z,6.99
2022-09-12T00:47:03.492Z,7.72
2022-09-12T00:48:03.551Z,8.62
2022-09-12T00:49:03.668Z,8.36
2022-09-12T00:50:03.630Z,8.18
2022-09-12T00:51:03.663Z,8.80
2022-09-12T00:52:06.222Z,8.71
2022-09-12T00:53:03.747Z,8.53
2022-09-12T00:54:03.773Z,8.53
2022-09-12T00:55:03.826Z,8.71
2022-09-12T00:56:03.915Z,8.36
2022-09-12T00:57:03.873Z,7.81
2022-09-12T00:58:03.907Z,7.72
2022-09-12T00:59:03.941Z,7.90
2022-09-12T01:00:04.024Z,7.54
2022-09-12T01:01:04.277Z,7.08
2022-09-12T01:02:05.062Z,6.89
2022-09-12T01:03:04.056Z,6.24
2022-09-12T01:04:04.093Z,6.52
2022-09-12T01:05:04.107Z,6.61
2022-09-12T01:06:04.056Z,6.99
2022-09-12T01:07:04.091Z,6.24
2022-09-12T01:08:04.145Z,6.71
2022-09-12T01:09:04.175Z,6.89
2022-09-12T01:10:04.262Z,7.08
2022-09-12T01:11:04.206Z,7.54
2022-09-12T01:12:04.238Z,8.00
2022-09-12T01:13:04.279Z,8.00
2022-09-12T01:14:04.305Z,7.36
2022-09-12T01:15:04.350Z,8.53
2022-09-12T01:16:04.412Z,7.26
2022-09-12T01:17:04.497Z,2.17
2022-09-12T01:18:04.476Z,2.17
2022-09-12T01:19:05.217Z,2.28
2022-09-12T01:20:04.498Z,1.54
2022-09-12T01:21:04.518Z,0.90
2022-09-12T01:22:04.529Z,0.69
2022-09-12T01:23:04.559Z,0.47
2022-09-12T01:24:04.579Z,0.69
2022-09-12T01:25:04.589Z,0.00
2022-09-12T01:26:04.630Z,0.00
2022-09-12T01:27:04.690Z,0.00
2022-09-12T01:28:04.771Z,0.00
2022-09-12T01:29:04.803Z,0.00
2022-09-12T01:30:04.792Z,0.00
2022-09-12T01:31:04.869Z,0.00
2022-09-12T01:32:04.924Z,0.00
2022-09-12T01:33:04.900Z,0.00
2022-09-12T01:34:04.943Z,0.00
2022-09-12T01:35:04.992Z,0.00
2022-09-12T01:36:05.172Z,0.00
2022-09-12T01:37:05.102Z,0.00
2022-09-12T01:38:05.162Z,0.00
2022-09-12T01:39:05.815Z,0.00
2022-09-12T01:40:05.215Z,0.00
2022-09-12T01:41:05.154Z,0.00
2022-09-12T01:42:05.943Z,0.00
2022-09-12T01:43:05.285Z,0.00
2022-09-12T01:44:05.287Z,0.00
2022-09-12T01:45:05.254Z,0.00
2022-09-12T01:46:05.364Z,0.00
2022-09-12T01:47:05.377Z,0.00
2022-09-12T01:48:05.415Z,0.00
2022-09-12T01:49:05.417Z,0.00
2022-09-12T01:50:05.386Z,0.00
2022-09-12T01:51:05.446Z,0.00
2022-09-12T01:52:05.506Z,0.00
2022-09-12T01:53:05.576Z,0.00
2022-09-12T01:54:05.676Z,0.00
2022-09-12T01:55:10.180Z,0.00
2022-09-12T01:56:05.666Z,0.00
2022-09-12T01:57:05.775Z,0.00
2022-09-12T01:58:05.778Z,0.00
2022-09-12T01:59:05.820Z,0.00
2022-09-12T02:00:05.869Z,0.00
2022-09-12T02:01:05.950Z,0.00
2022-09-12T02:02:05.966Z,0.00
2022-09-12T02:03:05.909Z,0.00
2022-09-12T02:04:05.950Z,0.00
2022-09-12T02:05:07.015Z,0.00
2022-09-12T02:06:06.120Z,0.00
2022-09-12T02:07:06.860Z,0.00
2022-09-12T02:08:06.160Z,0.00
2022-09-12T02:09:07.161Z,0.00
2022-09-12T02:10:06.249Z,0.00
2022-09-12T02:11:06.252Z,0.00
2022-09-12T02:12:06.244Z,0.00
2022-09-12T02:13:06.201Z,0.00
2022-09-12T02:14:06.244Z,0.00
2022-09-12T02:15:08.440Z,0.00
2022-09-12T02:16:06.349Z,0.00
2022-09-12T02:17:06.385Z,0.00
2022-09-12T02:18:06.323Z,0.00
2022-09-12T02:19:06.403Z,0.00
2022-09-12T02:20:06.380Z,0.00
2022-09-12T02:21:06.654Z,0.00
2022-09-12T02:22:06.453Z,0.00
2022-09-12T02:23:06.549Z,0.00
2022-09-12T02:24:06.531Z,0.00
2022-09-12T02:25:07.484Z,0.00
2022-09-12T02:26:07.263Z,0.00
2022-09-12T02:27:07.035Z,0.00
2022-09-12T02:28:06.585Z,0.00
2022-09-12T02:29:06.666Z,0.00
2022-09-12T02:30:06.691Z,0.00
2022-09-12T02:31:06.676Z,0.00
2022-09-12T02:32:06.646Z,0.00
2022-09-12T02:33:06.716Z,0.00
2022-09-12T02:34:06.790Z,0.00
2022-09-12T02:35:06.767Z,0.00
2022-09-12T02:36:06.838Z,0.00
2022-09-12T02:37:06.821Z,0.00
2022-09-12T02:38:06.857Z,0.00
2022-09-12T02:39:07.832Z,0.00
2022-09-12T02:40:06.938Z,0.00
2022-09-12T02:41:06.921Z,0.00
2022-09-12T02:42:07.004Z,0.00
2022-09-12T02:43:06.958Z,0.00
2022-09-12T02:44:07.637Z,0.00
2022-09-12T02:45:07.022Z,0.00
2022-09-12T02:46:07.147Z,0.00
2022-09-12T02:47:07.163Z,0.00
2022-09-12T02:48:07.120Z,0.00
2022-09-12T02:49:09.337Z,0.00
2022-09-12T02:50:07.187Z,0.00
2022-09-12T02:51:07.240Z,0.00
2022-09-12T02:52:07.301Z,0.00
2022-09-12T02:53:07.342Z,0.00
2022-09-12T02:54:07.407Z,0.00
2022-09-12T02:55:07.452Z,0.00
2022-09-12T02:56:07.513Z,0.00
2022-09-12T02:57:07.573Z,0.00
2022-09-12T02:58:07.815Z,0.00
2022-09-12T02:59:07.680Z,0.00
2022-09-12T03:00:07.672Z,0.00
2022-09-12T03:01:07.657Z,0.00
2022-09-12T03:02:08.738Z,0.00
2022-09-12T03:03:07.715Z,0.00
2022-09-12T03:04:07.759Z,0.00
2022-09-12T03:05:07.858Z,0.00
2022-09-12T03:06:08.775Z,0.00
2022-09-12T03:07:07.906Z,0.00
2022-09-12T03:08:07.956Z,0.00
2022-09-12T03:09:08.010Z,0.00
2022-09-12T03:10:08.058Z,0.00
2022-09-12T03:11:08.129Z,0.00
2022-09-12T03:12:08.186Z,0.00
2022-09-12T03:13:08.165Z,0.00
2022-09-12T03:14:08.207Z,0.00
2022-09-12T03:15:08.246Z,0.00
2022-09-12T03:16:08.354Z,0.00
2022-09-12T03:17:08.348Z,0.00
2022-09-12T03:18:08.392Z,0.00
2022-09-12T03:19:10.375Z,0.00
2022-09-12T03:20:08.427Z,0.00
2022-09-12T03:21:09.387Z,0.00
2022-09-12T03:22:08.548Z,0.00
2022-09-12T03:23:08.598Z,0.00
2022-09-12T03:24:08.629Z,0.00
2022-09-12T03:25:08.679Z,0.00
2022-09-12T03:26:08.760Z,0.00
2022-09-12T03:27:08.720Z,0.00
2022-09-12T03:28:08.760Z,0.00
2022-09-12T03:29:08.810Z,0.00
2022-09-12T03:30:08.870Z,0.00
2022-09-12T03:31:08.942Z,0.00
2022-09-12T03:32:08.913Z,0.00
2022-09-12T03:33:08.963Z,0.00
2022-09-12T03:34:09.013Z,0.00
2022-09-12T03:35:09.052Z,0.00
2022-09-12T03:36:09.097Z,0.00
2022-09-12T03:37:09.136Z,0.00
2022-09-12T03:38:09.213Z,0.00
2022-09-12T03:39:09.243Z,0.00
2022-09-12T03:40:09.337Z,0.00
2022-09-12T03:41:09.323Z,0.00
2022-09-12T03:42:09.364Z,0.00
2022-09-12T03:43:09.434Z,0.00
2022-09-12T03:44:09.475Z,0.00
2022-09-12T03:45:09.514Z,0.00
2022-09-12T03:46:09.617Z,0.00
2022-09-12T03:47:11.359Z,0.00
2022-09-12T03:48:09.645Z,0.00
2022-09-12T03:49:09.706Z,0.00
2022-09-12T03:50:09.754Z,0.00
2022-09-12T03:51:09.796Z,0.00
2022-09-12T03:52:09.851Z,0.00
2022-09-12T03:53:12.086Z,0.00
2022-09-12T03:54:09.927Z,0.00
2022-09-12T03:55:09.987Z,0.00
2022-09-12T03:56:10.048Z,0.00
2022-09-12T03:57:10.077Z,0.00
2022-09-12T03:58:10.118Z,0.00
2022-09-12T03:59:10.167Z,0.00
2022-09-12T04:00:10.232Z,0.00
2022-09-12T04:01:10.298Z,0.00
2022-09-12T04:02:10.315Z,0.00
2022-09-12T04:03:10.350Z,0.00
2022-09-12T04:04:10.412Z,0.00
2022-09-12T04:05:10.450Z,0.00
2022-09-12T04:06:10.499Z,0.00
2022-09-12T04:07:10.540Z,0.00
2022-09-12T04:08:10.580Z,0.00
2022-09-12T04:09:10.642Z,0.00
2022-09-12T04:10:10.680Z,0.00
2022-09-12T04:11:10.731Z,0.00
2022-09-12T04:12:10.794Z,0.00
2022-09-12T04:13:10.831Z,0.00
2022-09-12T04:14:10.882Z,0.00
2022-09-12T04:15:10.933Z,0.00
2022-09-12T04:16:11.059Z,0.00
2022-09-12T04:17:10.982Z,0.00
2022-09-12T04:18:11.033Z,0.00
2022-09-12T04:19:11.082Z,0.00
2022-09-12T04:20:11.131Z,0.00
2022-09-12T04:21:11.183Z,0.00
2022-09-12T04:22:11.235Z,0.00
2022-09-12T04:23:11.275Z,0.00
2022-09-12T04:24:11.324Z,0.00
2022-09-12T04:25:11.385Z,0.00
2022-09-12T04:26:11.431Z,0.00
2022-09-12T04:27:11.483Z,0.00
2022-09-12T04:28:11.545Z,0.00
2022-09-12T04:29:11.606Z,0.00
2022-09-12T04:30:11.606Z,0.00
2022-09-12T04:31:11.677Z,0.00
2022-09-12T04:32:11.672Z,0.00
2022-09-12T04:33:11.668Z,0.00
2022-09-12T04:34:11.650Z,0.00
2022-09-12T04:35:11.638Z,0.00
2022-09-12T04:36:11.635Z,0.00
2022-09-12T04:37:12.529Z,0.00
2022-09-12T04:38:11.620Z,0.00
2022-09-12T04:39:11.687Z,0.00
2022-09-12T04:40:11.714Z,0.00
2022-09-12T04:41:11.739Z,0.00
2022-09-12T04:42:11.730Z,0.00
2022-09-12T04:43:14.516Z,0.00
2022-09-12T04:44:11.801Z,0.00
2022-09-12T04:45:11.820Z,0.00
2022-09-12T04:46:11.942Z,0.00
2022-09-12T04:47:11.902Z,0.00
2022-09-12T04:48:11.883Z,0.00
2022-09-12T04:49:12.761Z,0.00
2022-09-12T04:50:12.884Z,0.00
2022-09-12T04:51:12.012Z,0.00
2022-09-12T04:52:12.142Z,0.00
2022-09-12T04:53:12.133Z,0.00
2022-09-12T04:54:12.218Z,0.00
2022-09-12T04:55:12.145Z,0.00
2022-09-12T04:56:12.821Z,0.00
2022-09-12T04:57:12.203Z,0.00
2022-09-12T04:58:13.125Z,0.00
2022-09-12T04:59:12.302Z,0.00
2022-09-12T05:00:12.293Z,0.00
2022-09-12T05:01:12.380Z,0.00
2022-09-12T05:02:12.573Z,0.00
2022-09-12T05:03:12.384Z,0.00
2022-09-12T05:04:12.414Z,0.00
2022-09-12T05:05:12.424Z,0.00
2022-09-12T05:06:12.435Z,0.00
2022-09-12T05:07:12.475Z,0.00
2022-09-12T05:08:12.545Z,0.00
2022-09-12T05:09:12.533Z,0.00
2022-09-12T05:10:12.556Z,0.00
2022-09-12T05:11:12.606Z,0.00
2022-09-12T05:12:13.598Z,0.00
2022-09-12T05:13:12.916Z,0.00
2022-09-12T05:14:12.716Z,0.00
2022-09-12T05:15:12.697Z,0.00
2022-09-12T05:16:13.614Z,0.00
2022-09-12T05:17:12.718Z,0.00
2022-09-12T05:18:12.749Z,0.00
2022-09-12T05:19:12.808Z,0.00
2022-09-12T05:20:13.699Z,0.00
2022-09-12T05:21:12.878Z,0.00
2022-09-12T05:22:12.876Z,0.00
2022-09-12T05:23:12.890Z,0.00
2022-09-12T05:24:12.923Z,0.00
2022-09-12T05:25:12.946Z,0.00
2022-09-12T05:26:12.935Z,0.00
2022-09-12T05:27:12.990Z,0.00
2022-09-12T05:28:13.012Z,0.00
2022-09-12T05:29:13.010Z,0.00
2022-09-12T05:30:13.087Z,0.00
2022-09-12T05:31:13.954Z,0.00
2022-09-12T05:32:13.132Z,0.00
2022-09-12T05:33:13.162Z,0.00
2022-09-12T05:34:13.182Z,0.00
2022-09-12T05:35:13.192Z,0.00
2022-09-12T05:36:13.872Z,0.00
2022-09-12T05:37:13.280Z,0.00
2022-09-12T05:38:13.253Z,0.00
2022-09-12T05:39:13.323Z,0.00
2022-09-12T05:40:13.385Z,0.00
2022-09-12T05:41:17.048Z,0.00
2022-09-12T05:42:14.104Z,0.00
2022-09-12T05:43:14.285Z,0.00
2022-09-12T05:44:13.439Z,0.00
2022-09-12T05:45:13.455Z,0.00
2022-09-12T05:46:13.518Z,0.00
2022-09-12T05:47:13.545Z,0.00
2022-09-12T05:48:13.555Z,0.00
2022-09-12T05:49:16.151Z,0.00
2022-09-12T05:50:13.657Z,0.00
2022-09-12T05:51:13.737Z,0.00
2022-09-12T05:52:13.897Z,0.00
2022-09-12T05:53:13.677Z,0.00
2022-09-12T05:54:13.703Z,0.00
2022-09-12T05:55:13.718Z,0.00
2022-09-12T05:56:13.709Z,0.00
2022-09-12T05:57:13.722Z,0.00
2022-09-12T05:58:13.761Z,0.00
2022-09-12T05:59:15.461Z,0.00
2022-09-12T06:00:13.871Z,0.00
2022-09-12T06:01:13.874Z,0.00
2022-09-12T06:02:13.894Z,0.00
2022-09-12T06:03:13.832Z,0.00
2022-09-12T06:04:13.935Z,6.71
2022-09-12T06:05:14.985Z,9.16
2022-09-12T06:06:15.520Z,10.20
2022-09-12T06:07:14.012Z,8.18
2022-09-12T06:08:14.014Z,8.45
2022-09-12T06:09:14.024Z,9.85
2022-09-12T06:10:14.036Z,8.45
2022-09-12T06:11:14.036Z,7.26
2022-09-12T06:12:14.038Z,6.89
2022-09-12T06:13:14.044Z,6.99
2022-09-12T06:14:15.081Z,6.24
2022-09-12T06:15:14.070Z,6.61
2022-09-12T06:16:14.121Z,6.52
2022-09-12T06:17:14.197Z,6.52
2022-09-12T06:18:15.121Z,4.50
2022-09-12T06:19:14.394Z,4.99
2022-09-12T06:20:14.331Z,5.86
2022-09-12T06:21:15.208Z,6.99
2022-09-12T06:22:14.269Z,6.14
2022-09-12T06:23:14.379Z,10.37
2022-09-12T06:24:14.399Z,9.59
2022-09-12T06:25:14.440Z,9.51
2022-09-12T06:26:14.482Z,9.16
2022-09-12T06:27:14.522Z,8.45
2022-09-12T06:28:14.530Z,8.27
2022-09-12T06:29:14.537Z,7.90
2022-09-12T06:30:14.553Z,10.54
2022-09-12T06:31:14.554Z,7.81
2022-09-12T06:32:14.566Z,7.36
2022-09-12T06:33:14.555Z,12.94
2022-09-12T06:34:14.618Z,12.37
2022-09-12T06:35:14.696Z,13.02
2022-09-12T06:36:14.657Z,12.62
2022-09-12T06:37:14.707Z,12.94
2022-09-12T06:38:14.748Z,13.34
2022-09-12T06:39:14.789Z,12.94
2022-09-12T06:40:14.875Z,13.50
2022-09-12T06:41:14.839Z,13.66
2022-09-12T06:42:14.899Z,13.02
2022-09-12T06:43:14.939Z,12.05
2022-09-12T06:44:15.010Z,12.13
2022-09-12T06:45:15.196Z,12.29
2022-09-12T06:46:15.109Z,12.86
2022-09-12T06:47:15.142Z,12.37
2022-09-12T06:48:15.172Z,10.03
2022-09-12T06:49:15.242Z,10.79
2022-09-12T06:50:15.293Z,11.96
2022-09-12T06:51:15.363Z,11.96
2022-09-12T06:52:15.424Z,11.55
2022-09-12T06:53:15.472Z,10.88
2022-09-12T06:54:15.573Z,11.72
2022-09-12T06:55:19.529Z,11.88
2022-09-12T06:56:15.545Z,11.38
2022-09-12T06:57:15.545Z,11.47
2022-09-12T06:58:15.588Z,11.55
2022-09-12T06:59:15.639Z,10.71
2022-09-12T07:00:15.793Z,10.20
2022-09-12T07:01:15.746Z,11.13
2022-09-12T07:02:15.778Z,10.28
2022-09-12T07:03:15.792Z,10.71
2022-09-12T07:04:15.847Z,10.03
2022-09-12T07:05:15.860Z,9.16
2022-09-12T07:06:15.860Z,9.51
2022-09-12T07:07:15.861Z,8.89
2022-09-12T07:08:15.861Z,7.72
2022-09-12T07:09:15.863Z,8.27
2022-09-12T07:10:19.091Z,8.36
2022-09-12T07:11:15.896Z,8.53
2022-09-12T07:12:15.914Z,8.62
2022-09-12T07:13:15.924Z,8.18
2022-09-12T07:14:15.918Z,7.17
2022-09-12T07:15:15.916Z,7.45
2022-09-12T07:16:19.476Z,7.36
2022-09-12T07:17:15.987Z,7.63
2022-09-12T07:18:15.988Z,7.63
2022-09-12T07:19:16.008Z,8.36
2022-09-12T07:20:15.998Z,8.80
2022-09-12T07:21:15.999Z,8.00
2022-09-12T07:22:16.000Z,9.68
2022-09-12T07:23:15.999Z,9.77
2022-09-12T07:24:16.029Z,9.77
2022-09-12T07:25:16.032Z,10.45
2022-09-12T07:26:16.061Z,9.59
2022-09-12T07:27:16.092Z,10.45
2022-09-12T07:28:16.122Z,10.71
2022-09-12T07:29:35.954Z,11.22
2022-09-12T07:30:16.256Z,10.88
2022-09-12T07:31:16.401Z,10.79
2022-09-12T07:32:16.365Z,10.96
2022-09-12T07:33:16.416Z,11.38
2022-09-12T07:34:16.466Z,10.63
2022-09-12T07:35:16.517Z,10.20
2022-09-12T07:36:16.560Z,10.03
2022-09-12T07:37:16.590Z,10.28
2022-09-12T07:38:16.630Z,9.33
2022-09-12T07:39:16.647Z,9.51
2022-09-12T07:40:16.767Z,9.59
2022-09-12T07:41:16.710Z,11.38
2022-09-12T07:42:16.750Z,10.28
2022-09-12T07:43:16.851Z,9.51
2022-09-12T07:44:16.821Z,10.71
2022-09-12T07:45:16.869Z,11.13
2022-09-12T07:46:16.938Z,10.20
2022-09-12T07:47:16.885Z,10.54
2022-09-12T07:48:16.932Z,9.77
2022-09-12T07:49:16.964Z,9.42
2022-09-12T07:50:16.988Z,9.59
2022-09-12T07:51:16.984Z,9.42
2022-09-12T07:52:17.035Z,9.68
2022-09-12T07:53:17.076Z,9.68
2022-09-12T07:54:17.085Z,9.51
2022-09-12T07:55:17.127Z,10.20
2022-09-12T07:56:18.008Z,10.45
2022-09-12T07:57:17.178Z,11.13
2022-09-12T07:58:17.177Z,9.59
2022-09-12T07:59:35.398Z,10.71
2022-09-12T08:00:17.318Z,10.20
2022-09-12T08:01:17.374Z,9.59
2022-09-12T08:02:17.903Z,10.03
2022-09-12T08:03:17.390Z,10.03
2022-09-12T08:04:18.187Z,9.94
2022-09-12T08:05:17.443Z,9.77
2022-09-12T08:06:17.432Z,10.37
2022-09-12T08:07:17.423Z,9.94
2022-09-12T08:08:17.473Z,10.63
2022-09-12T08:09:17.507Z,10.45
2022-09-12T08:10:17.537Z,10.11
2022-09-12T08:11:17.577Z,10.28
2022-09-12T08:12:17.615Z,10.37
2022-09-12T08:13:17.655Z,11.47
2022-09-12T08:14:18.609Z,10.20
2022-09-12T08:15:17.726Z,10.63
2022-09-12T08:16:17.770Z,10.20
2022-09-12T08:17:17.797Z,12.62
2022-09-12T08:18:17.838Z,10.11
2022-09-12T08:19:17.883Z,10.71
2022-09-12T08:20:17.889Z,10.03
2022-09-12T08:21:17.911Z,10.28
2022-09-12T08:22:17.940Z,11.38
2022-09-12T08:23:17.948Z,9.94
2022-09-12T08:24:17.990Z,10.28
2022-09-12T08:25:18.001Z,9.77
2022-09-12T08:26:18.071Z,9.85
2022-09-12T08:27:18.143Z,9.59
2022-09-12T08:28:18.293Z,9.42
2022-09-12T08:29:18.441Z,10.11
2022-09-12T08:30:18.284Z,9.94
2022-09-12T08:31:18.333Z,9.68
2022-09-12T08:32:18.394Z,10.11
2022-09-12T08:33:18.449Z,10.37
2022-09-12T08:34:19.388Z,11.55
2022-09-12T08:35:18.499Z,10.11
2022-09-12T08:36:18.637Z,10.28
2022-09-12T08:37:18.588Z,10.63
2022-09-12T08:38:18.695Z,10.20
2022-09-12T08:39:18.648Z,10.28
2022-09-12T08:40:18.697Z,10.45
2022-09-12T08:41:18.720Z,10.11
2022-09-12T08:42:18.752Z,9.77
2022-09-12T08:43:18.770Z,9.85
2022-09-12T08:44:18.866Z,10.37
2022-09-12T08:45:18.835Z,10.28
2022-09-12T08:46:18.919Z,10.20
2022-09-12T08:47:18.921Z,9.68
2022-09-12T08:48:18.954Z,10.28
2022-09-12T08:49:19.121Z,9.85
2022-09-12T08:50:19.028Z,9.59
2022-09-12T08:51:19.044Z,9.68
2022-09-12T08:52:19.046Z,9.42
2022-09-12T08:53:19.077Z,9.85
2022-09-12T08:54:19.115Z,10.03
2022-09-12T08:55:19.133Z,9.42
2022-09-12T08:56:19.163Z,9.85
2022-09-12T08:57:19.212Z,9.16
2022-09-12T08:58:19.207Z,9.51
2022-09-12T08:59:19.267Z,9.59
2022-09-12T09:00:19.375Z,9.16
2022-09-12T09:01:19.386Z,9.51
2022-09-12T09:02:19.437Z,8.98
2022-09-12T09:03:19.410Z,9.59
2022-09-12T09:04:19.461Z,8.18
2022-09-12T09:05:19.523Z,8.53
2022-09-12T09:06:19.502Z,8.45
2022-09-12T09:07:19.561Z,8.62
2022-09-12T09:08:19.621Z,8.53
2022-09-12T09:09:19.662Z,8.36
2022-09-12T09:10:19.713Z,8.45
2022-09-12T09:11:19.693Z,8.18
2022-09-12T09:12:19.744Z,8.71
2022-09-12T09:13:19.804Z,8.80
2022-09-12T09:14:19.845Z,9.16
2022-09-12T09:15:19.916Z,9.16
2022-09-12T09:16:20.027Z,8.80
2022-09-12T09:17:20.037Z,8.45
2022-09-12T09:18:19.996Z,8.53
2022-09-12T09:19:20.059Z,8.00
2022-09-12T09:20:21.120Z,8.36
2022-09-12T09:21:20.157Z,8.53
2022-09-12T09:22:20.238Z,8.80
2022-09-12T09:23:20.343Z,8.71
2022-09-12T09:24:20.288Z,8.36
2022-09-12T09:25:22.871Z,8.80
2022-09-12T09:26:20.389Z,7.63
2022-09-12T09:27:39.227Z,9.51
2022-09-12T09:28:20.471Z,8.80
2022-09-12T09:29:20.524Z,9.07
2022-09-12T09:30:20.583Z,9.16
2022-09-12T09:31:20.674Z,8.53
2022-09-12T09:32:20.733Z,9.51
2022-09-12T09:33:20.703Z,8.45
2022-09-12T09:34:20.754Z,8.62
2022-09-12T09:35:20.856Z,9.42
2022-09-12T09:36:20.816Z,8.62
2022-09-12T09:37:20.823Z,8.36
2022-09-12T09:38:20.836Z,9.16
2022-09-12T09:39:20.836Z,8.89
2022-09-12T09:40:20.909Z,8.71
2022-09-12T09:41:20.847Z,8.53
2022-09-12T09:42:20.857Z,8.89
2022-09-12T09:43:21.295Z,8.71
2022-09-12T09:44:20.941Z,8.80
2022-09-12T09:45:20.939Z,9.42
2022-09-12T09:46:21.019Z,8.80
2022-09-12T09:47:20.944Z,8.71
2022-09-12T09:48:20.934Z,8.71
2022-09-12T09:49:20.911Z,9.42
2022-09-12T09:50:20.920Z,8.62
2022-09-12T09:51:20.979Z,8.80
2022-09-12T09:52:21.125Z,8.89
2022-09-12T09:53:21.151Z,9.07
2022-09-12T09:54:21.136Z,8.71
2022-09-12T09:55:21.152Z,8.53
2022-09-12T09:56:23.166Z,10.54
2022-09-12T09:57:21.245Z,9.51
2022-09-12T09:58:21.256Z,8.62
2022-09-12T09:59:21.266Z,8.80
2022-09-12T10:00:21.272Z,8.62
2022-09-12T10:01:21.388Z,8.71
2022-09-12T10:02:24.010Z,8.80
2022-09-12T10:03:21.370Z,8.80
2022-09-12T10:04:21.477Z,8.36
2022-09-12T10:05:21.379Z,8.27
2022-09-12T10:06:21.406Z,8.36
2022-09-12T10:07:21.390Z,8.09
2022-09-12T10:08:21.411Z,8.27
2022-09-12T10:09:21.440Z,9.07
2022-09-12T10:10:21.501Z,8.53
2022-09-12T10:11:21.505Z,8.36
2022-09-12T10:12:21.510Z,8.80
2022-09-12T10:13:21.522Z,8.36
2022-09-12T10:14:21.492Z,8.45
2022-09-12T10:15:21.544Z,8.09
2022-09-12T10:16:21.705Z,8.18
2022-09-12T10:17:21.543Z,8.09
2022-09-12T10:18:21.634Z,8.18
2022-09-12T10:19:21.919Z,8.27
2022-09-12T10:20:22.186Z,8.18
2022-09-12T10:21:21.616Z,8.45
2022-09-12T10:22:21.640Z,8.71
2022-09-12T10:23:21.707Z,8.89
2022-09-12T10:24:21.656Z,8.45
2022-09-12T10:25:21.708Z,7.90
2022-09-12T10:26:21.695Z,8.18
2022-09-12T10:27:21.878Z,8.36
2022-09-12T10:28:21.709Z,8.36
2022-09-12T10:29:21.749Z,8.36
2022-09-12T10:30:21.781Z,8.09
2022-09-12T10:31:21.791Z,8.53
2022-09-12T10:32:21.801Z,8.53
2022-09-12T10:33:21.821Z,9.24
2022-09-12T10:34:21.832Z,8.71
2022-09-12T10:35:21.812Z,8.45
2022-09-12T10:36:21.825Z,9.33
2022-09-12T10:37:21.822Z,8.98
2022-09-12T10:38:21.849Z,8.89
2022-09-12T10:39:21.853Z,9.07
2022-09-12T10:40:21.916Z,8.62
2022-09-12T10:41:21.837Z,8.98
2022-09-12T10:42:23.441Z,9.07
2022-09-12T10:43:21.835Z,9.51
2022-09-12T10:44:21.953Z,8.80
2022-09-12T10:45:21.947Z,8.71
2022-09-12T10:46:22.016Z,9.24
2022-09-12T10:47:22.088Z,9.77
2022-09-12T10:48:21.959Z,8.89
2022-09-12T10:49:22.019Z,8.71
2022-09-12T10:50:23.055Z,8.53
2022-09-12T10:51:22.060Z,9.07
2022-09-12T10:52:22.129Z,8.53
2022-09-12T10:53:22.192Z,8.53
2022-09-12T10:54:22.161Z,8.53
2022-09-12T10:55:22.209Z,8.80
2022-09-12T10:56:22.272Z,9.24
2022-09-12T10:57:22.354Z,8.62
2022-09-12T10:58:22.323Z,8.98
2022-09-12T10:59:22.394Z,8.98
2022-09-12T11:00:22.384Z,8.89
2022-09-12T11:01:22.483Z,8.80
2022-09-12T11:02:22.502Z,8.89
2022-09-12T11:03:22.455Z,8.62
2022-09-12T11:04:22.526Z,11.05
2022-09-12T11:05:22.923Z,9.77
2022-09-12T11:06:22.586Z,9.07
2022-09-12T11:07:22.557Z,9.07
2022-09-12T11:08:22.621Z,9.16
2022-09-12T11:09:22.688Z,8.62
2022-09-12T11:10:22.659Z,8.71
2022-09-12T11:11:22.709Z,9.07
2022-09-12T11:12:22.781Z,8.71
2022-09-12T11:13:22.770Z,8.80
2022-09-12T11:14:22.811Z,10.54
2022-09-12T11:15:22.814Z,8.62
2022-09-12T11:16:22.979Z,8.98
2022-09-12T11:17:23.763Z,9.16
2022-09-12T11:18:22.943Z,9.24
2022-09-12T11:19:22.973Z,9.07
2022-09-12T11:20:23.024Z,9.07
2022-09-12T11:21:23.041Z,9.51
2022-09-12T11:22:23.014Z,9.16
2022-09-12T11:23:23.104Z,9.24
2022-09-12T11:24:23.095Z,9.51
2022-09-12T11:25:23.095Z,9.85
2022-09-12T11:26:23.136Z,8.89
2022-09-12T11:27:23.137Z,9.16
2022-09-12T11:28:23.097Z,9.07
2022-09-12T11:29:23.148Z,9.16
2022-09-12T11:30:23.219Z,8.27
2022-09-12T11:31:23.270Z,9.16
2022-09-12T11:32:23.534Z,8.98
2022-09-12T11:33:23.409Z,8.71
2022-09-12T11:34:23.461Z,9.07
2022-09-12T11:35:23.472Z,10.63
2022-09-12T11:36:23.493Z,10.45
2022-09-12T11:37:23.581Z,10.03
2022-09-12T11:38:23.551Z,10.11
2022-09-12T11:39:23.602Z,10.79
2022-09-12T11:40:23.806Z,10.03
2022-09-12T11:41:23.773Z,9.94
2022-09-12T11:42:27.446Z,10.28
2022-09-12T11:43:23.715Z,10.63
2022-09-12T11:44:23.750Z,10.20
2022-09-12T11:45:23.766Z,10.20
2022-09-12T11:46:23.857Z,10.11
2022-09-12T11:47:23.828Z,9.94
2022-09-12T11:48:23.834Z,9.94
2022-09-12T11:49:23.887Z,9.68
2022-09-12T11:50:23.958Z,9.51
2022-09-12T11:51:23.988Z,10.11
2022-09-12T11:52:24.050Z,9.94
2022-09-12T11:53:24.070Z,11.88
2022-09-12T11:54:24.120Z,10.71
2022-09-12T11:55:24.150Z,10.11
2022-09-12T11:56:24.141Z,10.11
2022-09-12T11:57:24.151Z,12.21
2022-09-12T11:58:24.163Z,10.20
2022-09-12T11:59:24.232Z,9.16
2022-09-12T12:00:24.223Z,9.77
2022-09-12T12:01:24.301Z,9.94
2022-09-12T12:02:24.324Z,10.03
2022-09-12T12:03:24.265Z,9.94
2022-09-12T12:04:24.244Z,9.42
2022-09-12T12:05:24.295Z,9.51
2022-09-12T12:06:24.364Z,9.68
2022-09-12T12:07:24.377Z,9.77
2022-09-12T12:08:24.366Z,9.59
2022-09-12T12:09:24.417Z,10.20
2022-09-12T12:10:24.408Z,10.11
2022-09-12T12:11:24.459Z,10.11
2022-09-12T12:12:24.479Z,9.77
2022-09-12T12:13:24.490Z,9.33
2022-09-12T12:14:24.462Z,9.94
2022-09-12T12:15:24.521Z,9.77
2022-09-12T12:16:24.620Z,9.68
2022-09-12T12:17:24.633Z,10.54
2022-09-12T12:18:24.648Z,8.89
2022-09-12T12:19:24.683Z,11.05
2022-09-12T12:20:24.705Z,10.45
2022-09-12T12:21:24.693Z,9.24
2022-09-12T12:22:24.759Z,9.33
2022-09-12T12:23:24.804Z,8.89
2022-09-12T12:24:24.855Z,8.89
2022-09-12T12:25:29.463Z,8.98
2022-09-12T12:26:24.977Z,9.07
2022-09-12T12:27:25.006Z,9.85
2022-09-12T12:28:24.999Z,9.51
2022-09-12T12:29:25.048Z,9.16
2022-09-12T12:30:25.059Z,9.42
2022-09-12T12:31:25.108Z,9.68
2022-09-12T12:32:25.150Z,9.33
2022-09-12T12:33:25.090Z,9.33
2022-09-12T12:34:25.143Z,9.59
2022-09-12T12:35:25.180Z,10.03
2022-09-12T12:36:25.263Z,9.59
2022-09-12T12:37:25.252Z,9.24
2022-09-12T12:38:25.312Z,10.54
2022-09-12T12:39:25.325Z,10.79
2022-09-12T12:40:25.418Z,9.68
2022-09-12T12:41:25.354Z,9.24
2022-09-12T12:42:25.397Z,9.68
2022-09-12T12:43:25.464Z,8.71
2022-09-12T12:44:25.494Z,9.16
2022-09-12T12:45:25.555Z,8.62
2022-09-12T12:46:25.661Z,8.89
2022-09-12T12:47:25.607Z,9.77
2022-09-12T12:48:25.677Z,8.98
2022-09-12T12:49:25.728Z,9.24
2022-09-12T12:50:25.717Z,9.24
2022-09-12T12:51:25.709Z,9.07
2022-09-12T12:52:26.518Z,8.80
2022-09-12T12:53:25.746Z,8.98
2022-09-12T12:54:25.701Z,9.07
2022-09-12T12:55:25.771Z,9.68
2022-09-12T12:56:25.831Z,9.42
2022-09-12T12:57:25.937Z,8.98
2022-09-12T12:58:25.972Z,8.53
2022-09-12T12:59:27.003Z,8.62
2022-09-12T13:00:26.036Z,8.89
2022-09-12T13:01:26.036Z,9.07
2022-09-12T13:02:26.232Z,8.62
2022-09-12T13:03:26.074Z,8.89
2022-09-12T13:04:26.146Z,8.80
2022-09-12T13:05:26.206Z,8.45
2022-09-12T13:06:26.256Z,8.80
2022-09-12T13:07:26.246Z,8.80
2022-09-12T13:08:26.227Z,8.89
2022-09-12T13:09:26.290Z,8.80
2022-09-12T13:10:26.369Z,8.62
2022-09-12T13:11:26.440Z,8.36
2022-09-12T13:12:26.410Z,8.45
2022-09-12T13:13:26.450Z,9.59
2022-09-12T13:14:30.033Z,7.54